Flight Track Log - Related Links

Times and Time Zones

All times are in EDT time to prevent confusion due to time zone crossing. See the N472QS flight status page for this flight to view local times or setup timezone preferences in your user account.

Time Position Orientation Groundspeed Altitude Reporting Facility
EDT Latitude Longitude Course Direction KTS MPH feet Rate Location/Type
Mon 08:24:30 AM 25.7994 -80.3044 265° West 161 185 900  Level Miami Center
Mon 08:25:42 AM 25.7939 -80.3689 265° West 221 254 4,300 2,727 Climbing Miami Center
Mon 08:26:42 AM 25.8194 -80.4319 294° West 221 254 6,900 3,050 Climbing Miami Center
Mon 08:27:42 AM 25.8928 -80.4225 North 187 215 10,400 2,650 Climbing Miami Center
Mon 08:28:42 AM 25.9783 -80.4228 360° North 236 272 12,200 2,050 Climbing Miami Center
Mon 08:29:42 AM 26.0767 -80.4236 360° North 302 348 14,500 2,350 Climbing Miami Center
Mon 08:30:42 AM 26.1789 -80.4267 358° North 339 390 16,900 2,450 Climbing Miami Center
Mon 08:31:42 AM 26.2806 -80.4528 347° North 368 423 19,400 2,450 Climbing Miami Center
Mon 08:32:42 AM 26.3858 -80.5022 337° Northwest 380 437 21,800 2,000 Climbing Miami Center
Mon 08:33:42 AM 26.4808 -80.5494 336° Northwest 391 450 23,400 1,800 Climbing Miami Center
Mon 08:34:42 AM 26.5922 -80.6017 337° Northwest 396 456 25,400 1,800 Climbing Miami Center
Mon 08:35:42 AM 26.6869 -80.6464 337° Northwest 401 461 27,000 1,900 Climbing Miami Center
Mon 08:36:42 AM 26.7964 -80.6989 337° Northwest 416 479 29,200 2,100 Climbing Miami Center
Mon 08:37:42 AM 26.9081 -80.7397 342° North 416 479 31,200 2,200 Climbing Miami Center
Mon 08:38:42 AM 27.0156 -80.7783 342° North 411 473 33,600 2,450 Climbing Miami Center
Mon 08:39:42 AM 27.1231 -80.8169 342° North 404 465 36,100 1,700 Climbing Miami Center
Mon 08:40:42 AM 27.2286 -80.8556 342° North 398 458 37,000 450 Climbing Miami Center
Mon 08:41:42 AM 27.3361 -80.8944 342° North 398 458 37,000  Level Miami Center
Mon 08:42:42 AM 27.4436 -80.9333 342° North 398 458 37,000  Level Miami Center
Mon 08:43:42 AM 27.5592 -80.9747 342° North 411 473 37,000  Level Miami Center
Mon 08:44:42 AM 27.6728 -81.0164 342° North 423 487 37,000  Level Miami Center
Mon 08:45:42 AM 27.7864 -81.0581 342° North 423 487 37,000  Level Miami Center
Mon 08:46:42 AM 27.9019 -81.1022 341° North 423 487 37,000  Level Miami Center
Mon 08:47:42 AM 28.0156 -81.1419 343° North 423 487 37,000  Level Miami Center
Mon 08:48:42 AM 28.1414 -81.1889 342° North 423 487 37,000  Level Miami Center
Mon 08:49:42 AM 28.2528 -81.2308 342° North 423 487 37,000  Level Miami Center
Mon 08:50:42 AM 28.3664 -81.2708 343° North 418 481 37,000  Level Miami Center
Mon 08:51:42 AM 28.4694 -81.3078 343° North 425 489 37,000  Level Miami Center
Mon 08:52:42 AM 28.5853 -81.3408 346° North 425 489 37,000  Level Miami Center
Mon 08:53:45 AM 28.7147 -81.3539 355° North 441 507 37,000  Level Jacksonville Center
Mon 08:54:45 AM 28.8358 -81.3661 355° North 453 521 37,000  Level Jacksonville Center
Mon 08:55:45 AM 28.9592 -81.3761 356° North 447 514 37,000  Level Jacksonville Center
Mon 08:56:45 AM 29.0844 -81.3886 355° North 442 509 37,000  Level Jacksonville Center
Mon 08:57:45 AM 29.2078 -81.4008 355° North 442 509 37,000  Level Jacksonville Center
Mon 08:58:45 AM 29.3311 -81.4108 356° North 442 509 37,000  Level Jacksonville Center
Mon 08:59:45 AM 29.4503 -81.4283 353° North 442 509 37,000  Level Jacksonville Center
Mon 09:00:45 AM 29.5714 -81.4408 355° North 436 502 37,000 -100 Level Jacksonville Center
Mon 09:01:45 AM 29.6947 -81.4486 357° North 436 502 36,800 -1,100 Descending Jacksonville Center
Mon 09:02:45 AM 29.8181 -81.4611 355° North 441 507 34,800 -2,000 Descending Jacksonville Center
Mon 09:03:45 AM 29.9433 -81.4736 355° North 446 513 32,800 -1,950 Descending Jacksonville Center
Mon 09:04:45 AM 30.0689 -81.4861 355° North 446 513 30,900 -2,050 Descending Jacksonville Center
Mon 09:05:45 AM 30.2067 -81.4961 356° North 446 513 28,700 -2,000 Descending Jacksonville Center
Mon 09:06:45 AM 30.3258 -81.5089 355° North 439 505 26,900 -1,800 Descending Jacksonville Center
Mon 09:07:45 AM 30.4447 -81.5022 North 434 499 25,100 -1,800 Descending Jacksonville Center
Mon 09:08:45 AM 30.5617 -81.4933 North 421 484 23,300 -1,750 Descending Jacksonville Center
Mon 09:09:45 AM 30.6742 -81.4844 North 415 478 21,600 -1,700 Descending Jacksonville Center
Mon 09:10:45 AM 30.7806 -81.4756 North 401 461 19,900 -1,700 Descending Jacksonville Center
Mon 09:11:45 AM 30.8869 -81.4667 North 384 442 18,200 -1,450 Descending Jacksonville Center
Mon 09:12:45 AM 30.9933 -81.4603 North 384 442 17,000 -650 Descending Jacksonville Center
Mon 09:13:45 AM 31.0956 -81.4514 North 379 436 16,900 -1,050 Descending Jacksonville Center
Mon 09:14:45 AM 31.1958 -81.4450 North 367 422 14,900 -2,000 Descending Jacksonville Center
Mon 09:15:45 AM 31.2917 -81.4267 North 355 409 12,900 -1,750 Descending Jacksonville Center
Mon 09:16:45 AM 31.3747 -81.3936 19° North 348 400 11,400 -1,050 Descending Jacksonville Center
Mon 09:17:45 AM 31.4725 -81.3581 17° North 340 391 10,800 -800 Descending Jacksonville Center
Mon 09:18:45 AM 31.5494 -81.3300 17° North 310 357 9,800 -1,300 Descending Jacksonville Center
Mon 09:19:45 AM 31.6158 -81.3067 17° North 274 315 8,200 -1,850 Descending Jacksonville Center
Mon 09:20:45 AM 31.6928 -81.2811 16° North 262 302 6,100 -1,600 Descending Jacksonville Center
Mon 09:21:45 AM 31.7531 -81.2653 13° North 255 293 5,000 -1,200 Descending Jacksonville Center
Mon 09:22:45 AM 31.8217 -81.2469 13° North 230 265 3,700 -1,000 Descending Jacksonville Center
Mon 09:23:45 AM 31.8800 -81.2314 13° North 219 252 3,000 -350 Descending Jacksonville Center
Mon 09:24:45 AM 31.9319 -81.2133 16° North 219 252 3,000 4,000 Level Jacksonville Center
Mon 09:25:45 AM 31.9903 -81.1950 15° North 219 252 11,000 8,000 Climbing Jacksonville Center
Mon 09:27:00 AM 32.1176 -81.2016 16° North  Level Estimated
Mon 09:34:00 AM 32.1167 -81.2000 North  Level FlightAware Approximate
Mon 09:35:00 AM 32.1276 -81.2021 North  Level Estimated
Mon 09:36:00 AM 32.1276 -81.2021 North  Level Estimated
Mon 09:37:00 AM 32.1276 -81.2021 North  Level Estimated
Mon 09:38:00 AM 32.1276 -81.2021 North  Level Estimated
Mon 09:39:00 AM 32.1276 -81.2021 North  Level Estimated

Login

Don't have an account? Register now (free) for customized features, flight alerts, and more!